createdAt,value
2024-01-07T00:02:10.844Z,37.80
2024-01-07T00:04:39.348Z,40.42
2024-01-07T00:07:07.219Z,36.05
2024-01-07T00:09:35.529Z,28.30
2024-01-07T00:12:03.298Z,64.70
2024-01-07T00:14:31.204Z,33.50
2024-01-07T00:16:59.061Z,34.35
2024-01-07T00:19:27.341Z,24.50
2024-01-07T00:21:54.996Z,19.73
2024-01-07T00:24:22.911Z,56.30
2024-01-07T00:26:50.450Z,41.85
2024-01-07T00:29:18.228Z,45.47
2024-01-07T00:31:46.238Z,40.05
2024-01-07T00:34:14.117Z,27.08
2024-01-07T00:36:41.668Z,18.25
2024-01-07T00:39:10.246Z,21.65
2024-01-07T00:41:38.270Z,30.95
2024-01-07T00:44:06.066Z,32.17
2024-01-07T00:46:33.510Z,27.67
2024-01-07T00:49:01.670Z,36.10
2024-01-07T00:51:29.206Z,35.80
2024-01-07T00:53:57.165Z,27.00
2024-01-07T00:56:28.004Z,24.15
2024-01-07T00:58:56.180Z,33.65
2024-01-07T01:01:23.923Z,26.50
2024-01-07T01:03:51.903Z,22.05
2024-01-07T01:06:19.470Z,25.30
2024-01-07T01:08:47.465Z,17.88
2024-01-07T01:11:15.312Z,15.38
2024-01-07T01:13:43.403Z,25.92
2024-01-07T01:16:11.303Z,34.55
2024-01-07T01:18:39.413Z,36.13
2024-01-07T01:21:07.283Z,29.63
2024-01-07T01:23:35.368Z,27.95
2024-01-07T01:26:03.243Z,25.67
2024-01-07T01:28:31.302Z,31.33
2024-01-07T01:30:59.279Z,32.90
2024-01-07T01:33:27.222Z,23.02
2024-01-07T01:35:55.765Z,21.38
2024-01-07T01:38:23.729Z,33.17
2024-01-07T01:40:57.168Z,24.73
2024-01-07T01:43:29.349Z,28.25
2024-01-07T01:45:58.013Z,29.70
2024-01-07T01:48:27.926Z,25.40
2024-01-07T01:50:59.235Z,21.45
2024-01-07T01:53:28.045Z,31.45
2024-01-07T01:55:58.617Z,24.65
2024-01-07T01:58:27.586Z,26.02
2024-01-07T02:00:55.359Z,24.17
2024-01-07T02:03:23.496Z,19.20
2024-01-07T02:05:51.416Z,23.85
2024-01-07T02:08:20.574Z,19.92
2024-01-07T02:10:48.422Z,23.25
2024-01-07T02:13:16.302Z,22.77
2024-01-07T02:15:44.946Z,22.65
2024-01-07T02:18:15.669Z,24.23
2024-01-07T02:20:43.496Z,19.52
2024-01-07T02:23:11.313Z,24.35
2024-01-07T02:25:39.255Z,22.90
2024-01-07T02:28:07.659Z,20.30
2024-01-07T02:30:35.730Z,28.55
2024-01-07T02:33:07.260Z,23.45
2024-01-07T02:35:34.870Z,21.15
2024-01-07T02:38:02.877Z,25.42
2024-01-07T02:40:30.642Z,19.73
2024-01-07T02:42:59.796Z,21.20
2024-01-07T02:45:27.619Z,22.83
2024-01-07T02:47:56.092Z,27.48
2024-01-07T02:50:23.582Z,22.10
2024-01-07T02:52:51.881Z,22.48
2024-01-07T02:55:19.480Z,23.63
2024-01-07T02:57:47.324Z,23.52
2024-01-07T03:00:15.306Z,27.45
2024-01-07T03:02:43.303Z,26.13
2024-01-07T03:05:10.926Z,18.38
2024-01-07T03:07:40.591Z,23.15
2024-01-07T03:10:08.789Z,24.50
2024-01-07T03:12:36.682Z,23.77
2024-01-07T03:15:04.956Z,26.20
2024-01-07T03:17:33.340Z,22.85
2024-01-07T03:20:01.091Z,25.92
2024-01-07T03:22:29.051Z,25.23
2024-01-07T03:24:56.501Z,25.35
2024-01-07T03:27:24.637Z,21.50
2024-01-07T03:29:52.942Z,19.05
2024-01-07T03:32:20.832Z,24.20
2024-01-07T03:34:48.621Z,25.05
2024-01-07T03:37:16.654Z,19.83
2024-01-07T03:39:45.218Z,24.63
2024-01-07T03:42:13.236Z,25.38
2024-01-07T03:44:40.794Z,27.83
2024-01-07T03:47:08.610Z,23.08
2024-01-07T03:49:39.122Z,26.42
2024-01-07T03:52:08.402Z,22.80
2024-01-07T03:54:36.035Z,18.85
2024-01-07T03:57:04.013Z,20.27
2024-01-07T03:59:31.933Z,27.02
2024-01-07T04:02:00.139Z,24.65
2024-01-07T04:04:27.755Z,20.30
2024-01-07T04:06:55.544Z,19.33
2024-01-07T04:09:23.208Z,26.05
2024-01-07T04:11:51.197Z,20.20
2024-01-07T04:14:19.727Z,22.77
2024-01-07T04:16:47.801Z,22.80
2024-01-07T04:19:15.436Z,24.10
2024-01-07T04:21:47.677Z,22.92
2024-01-07T04:24:15.715Z,23.60
2024-01-07T04:26:43.471Z,24.38
2024-01-07T04:29:11.040Z,23.23
2024-01-07T04:31:39.007Z,23.08
2024-01-07T04:34:06.548Z,21.17
2024-01-07T04:36:34.287Z,20.63
2024-01-07T04:39:01.968Z,23.25
2024-01-07T04:41:29.878Z,27.25
2024-01-07T04:43:57.300Z,22.52
2024-01-07T04:46:25.186Z,26.05
2024-01-07T04:48:52.739Z,24.05
2024-01-07T04:51:20.617Z,25.27
2024-01-07T04:53:49.537Z,30.88
2024-01-07T04:56:17.467Z,22.92
2024-01-07T04:58:45.013Z,30.85
2024-01-07T05:01:13.351Z,26.27
2024-01-07T05:03:41.692Z,32.53
2024-01-07T05:06:12.745Z,24.42
2024-01-07T05:08:42.442Z,27.38
2024-01-07T05:11:10.461Z,27.63
2024-01-07T05:13:37.927Z,27.25
2024-01-07T05:16:06.606Z,26.65
2024-01-07T05:18:36.341Z,23.95
2024-01-07T05:21:07.460Z,28.92
2024-01-07T05:23:34.869Z,23.05
2024-01-07T05:26:02.833Z,26.45
2024-01-07T05:28:30.227Z,29.20
2024-01-07T05:30:58.097Z,27.70
2024-01-07T05:33:26.574Z,21.73
2024-01-07T05:35:54.830Z,25.65
2024-01-07T05:38:22.452Z,26.50
2024-01-07T05:40:50.435Z,27.95
2024-01-07T05:43:17.949Z,33.33
2024-01-07T05:45:45.810Z,27.65
2024-01-07T05:48:13.364Z,24.40
2024-01-07T05:50:41.273Z,26.80
2024-01-07T05:53:08.776Z,28.83
2024-01-07T05:55:36.957Z,28.90
2024-01-07T05:58:04.776Z,30.98
2024-01-07T06:00:32.946Z,29.02
2024-01-07T06:03:00.504Z,25.73
2024-01-07T06:05:28.805Z,29.58
2024-01-07T06:07:56.369Z,25.83
2024-01-07T06:10:24.083Z,25.30
2024-01-07T06:12:51.574Z,24.00
2024-01-07T06:15:19.479Z,29.88
2024-01-07T06:17:47.886Z,23.50
2024-01-07T06:20:15.826Z,29.42
2024-01-07T06:22:43.428Z,29.35
2024-01-07T06:25:11.764Z,25.90
2024-01-07T06:27:42.685Z,29.23
2024-01-07T06:30:11.000Z,32.53
2024-01-07T06:32:39.039Z,23.75
2024-01-07T06:35:07.608Z,26.05
2024-01-07T06:37:36.123Z,28.33
2024-01-07T06:40:04.996Z,24.85
2024-01-07T06:42:32.683Z,27.00
2024-01-07T06:45:00.615Z,41.45
2024-01-07T06:47:28.239Z,26.85
2024-01-07T06:49:56.160Z,28.00
2024-01-07T06:52:23.882Z,27.02
2024-01-07T06:54:52.025Z,30.67
2024-01-07T06:57:19.855Z,33.35
2024-01-07T06:59:48.627Z,30.63
2024-01-07T07:02:16.956Z,29.05
2024-01-07T07:04:44.871Z,29.33
2024-01-07T07:07:12.720Z,27.63
2024-01-07T07:09:40.605Z,30.13
2024-01-07T07:12:09.811Z,30.13
2024-01-07T07:14:38.406Z,26.33
2024-01-07T07:17:05.899Z,30.02
2024-01-07T07:19:34.018Z,29.23
2024-01-07T07:22:01.628Z,39.35
2024-01-07T07:24:30.703Z,30.67
2024-01-07T07:26:58.302Z,28.30
2024-01-07T07:29:26.136Z,35.58
2024-01-07T07:31:53.794Z,25.10
2024-01-07T07:34:22.058Z,38.88
2024-01-07T07:36:50.981Z,39.78
2024-01-07T07:39:18.991Z,35.20
2024-01-07T07:41:46.590Z,39.33
2024-01-07T07:44:14.507Z,33.67
2024-01-07T07:46:42.463Z,36.03
2024-01-07T07:49:10.199Z,35.92
2024-01-07T07:51:37.742Z,34.20
2024-01-07T07:54:06.657Z,31.83
2024-01-07T07:56:34.378Z,31.63
2024-01-07T07:59:02.498Z,36.60
2024-01-07T08:01:30.366Z,33.95
2024-01-07T08:03:58.272Z,31.98
2024-01-07T08:06:27.379Z,299.27
2024-01-07T08:08:56.294Z,180.27
2024-01-07T08:11:24.153Z,39.20
2024-01-07T08:13:54.085Z,34.83
2024-01-07T08:16:22.759Z,39.40
2024-01-07T08:18:51.223Z,34.47
2024-01-07T08:21:18.772Z,169.18
2024-01-07T08:23:46.883Z,81.15
2024-01-07T08:26:19.185Z,138.60
2024-01-07T08:28:47.497Z,49.63
2024-01-07T08:31:15.067Z,100.53
2024-01-07T08:33:43.242Z,135.55
2024-01-07T08:36:10.835Z,145.63
2024-01-07T08:38:38.747Z,74.43
2024-01-07T08:41:06.309Z,80.90
2024-01-07T08:43:34.089Z,97.05
2024-01-07T08:46:02.722Z,75.13
2024-01-07T08:48:30.734Z,96.05
2024-01-07T08:50:58.666Z,54.38
2024-01-07T08:53:26.797Z,87.22
2024-01-07T08:55:54.463Z,130.88
2024-01-07T08:58:22.393Z,34.70
2024-01-07T09:00:50.577Z,45.25
2024-01-07T09:03:19.728Z,77.95
2024-01-07T09:05:48.933Z,126.20
2024-01-07T09:08:18.425Z,63.95
2024-01-07T09:10:45.937Z,45.63
2024-01-07T09:13:14.183Z,127.60
2024-01-07T09:15:41.735Z,121.03
2024-01-07T09:18:09.939Z,143.95
2024-01-07T09:20:37.907Z,108.28
2024-01-07T09:23:06.106Z,43.67
2024-01-07T09:25:33.643Z,123.97
2024-01-07T09:28:02.214Z,170.07
2024-01-07T09:30:30.056Z,52.42
2024-01-07T09:32:58.488Z,74.75
2024-01-07T09:35:26.704Z,75.93
2024-01-07T09:37:54.631Z,194.00
2024-01-07T09:40:23.663Z,74.85
2024-01-07T09:42:51.832Z,95.68
2024-01-07T09:45:21.580Z,42.55
2024-01-07T09:47:50.496Z,81.55
2024-01-07T09:50:18.495Z,50.38
2024-01-07T09:52:48.271Z,39.72
2024-01-07T09:55:29.638Z,53.70
2024-01-07T09:57:57.793Z,61.47
2024-01-07T10:00:28.504Z,84.57
2024-01-07T10:02:56.630Z,58.45
2024-01-07T10:05:24.076Z,71.47
2024-01-07T10:07:55.554Z,68.45
2024-01-07T10:10:23.051Z,49.90
2024-01-07T10:12:54.325Z,37.35
2024-01-07T10:15:22.219Z,45.40
2024-01-07T10:17:50.062Z,39.88
2024-01-07T10:20:18.497Z,34.67
2024-01-07T10:22:52.354Z,52.97
2024-01-07T10:25:20.518Z,71.03
2024-01-07T10:27:49.588Z,67.75
2024-01-07T10:30:17.968Z,56.50
2024-01-07T10:32:47.729Z,76.30
2024-01-07T10:35:16.348Z,49.60
2024-01-07T10:37:46.532Z,36.42
2024-01-07T10:40:14.950Z,42.83
2024-01-07T10:42:45.606Z,36.47
2024-01-07T10:45:13.381Z,40.95
2024-01-07T10:47:43.153Z,41.35
2024-01-07T10:50:15.515Z,54.42
2024-01-07T10:52:47.871Z,37.08
2024-01-07T10:55:18.799Z,47.40
2024-01-07T10:57:49.802Z,34.37
2024-01-07T11:00:21.864Z,51.58
2024-01-07T11:06:06.494Z,46.42
2024-01-07T11:08:55.888Z,43.28
2024-01-07T11:11:40.107Z,47.95
2024-01-07T11:14:40.970Z,39.22
2024-01-07T11:17:09.241Z,37.88
2024-01-07T11:19:37.673Z,39.95
2024-01-07T11:22:29.514Z,42.20
2024-01-07T11:25:06.821Z,50.92
2024-01-07T11:27:35.427Z,39.75
2024-01-07T11:30:11.500Z,38.53
2024-01-07T11:32:41.592Z,42.92
2024-01-07T11:35:10.081Z,48.33
2024-01-07T11:37:38.418Z,36.80
2024-01-07T11:40:08.663Z,43.63
2024-01-07T11:42:36.377Z,34.40
2024-01-07T11:45:04.405Z,39.78
2024-01-07T11:47:32.071Z,32.20
2024-01-07T11:50:01.487Z,34.88
2024-01-07T11:52:30.637Z,40.88
2024-01-07T11:54:59.156Z,33.90
2024-01-07T11:57:26.743Z,48.28
2024-01-07T11:59:54.659Z,31.63
2024-01-07T12:02:22.264Z,35.95
2024-01-07T12:04:51.251Z,41.13
2024-01-07T12:07:18.919Z,39.13
2024-01-07T12:09:47.333Z,39.75
2024-01-07T12:12:15.497Z,40.33
2024-01-07T12:14:44.380Z,33.40
2024-01-07T12:17:14.050Z,39.97
2024-01-07T12:19:43.240Z,34.83
2024-01-07T12:22:11.714Z,38.60
2024-01-07T12:24:39.707Z,43.97
2024-01-07T12:27:10.563Z,35.53
2024-01-07T12:29:38.369Z,30.50
2024-01-07T12:32:07.406Z,35.50
2024-01-07T12:34:35.865Z,40.58
2024-01-07T12:37:03.826Z,35.60
2024-01-07T12:39:32.179Z,34.30
2024-01-07T12:42:00.335Z,33.03
2024-01-07T12:44:30.048Z,37.90
2024-01-07T12:46:57.695Z,34.47
2024-01-07T12:49:25.887Z,32.17
2024-01-07T12:51:54.158Z,33.42
2024-01-07T12:54:23.193Z,33.55
2024-01-07T12:56:50.770Z,37.35
2024-01-07T12:59:19.305Z,38.80
2024-01-07T13:01:49.803Z,49.20
2024-01-07T13:04:19.463Z,40.78
2024-01-07T13:06:47.403Z,99.93
2024-01-07T13:09:15.576Z,42.83
2024-01-07T13:11:43.426Z,37.70
2024-01-07T13:14:11.644Z,36.15
2024-01-07T13:16:39.092Z,41.17
2024-01-07T13:19:07.237Z,42.75
2024-01-07T13:21:38.061Z,39.83
2024-01-07T13:24:07.666Z,36.90
2024-01-07T13:26:35.237Z,35.65
2024-01-07T13:29:05.057Z,34.10
2024-01-07T13:31:33.853Z,36.85
2024-01-07T13:34:01.916Z,37.30
2024-01-07T13:36:29.627Z,44.95
2024-01-07T13:38:57.565Z,36.15
2024-01-07T13:41:25.204Z,47.10
2024-01-07T13:43:54.200Z,55.08
2024-01-07T13:46:25.349Z,50.75
2024-01-07T13:48:55.278Z,38.65
2024-01-07T13:51:23.019Z,40.10
2024-01-07T13:53:51.325Z,42.75
2024-01-07T13:56:18.908Z,45.30
2024-01-07T13:58:50.466Z,42.10
2024-01-07T14:01:18.554Z,45.30
2024-01-07T14:03:46.720Z,34.85
2024-01-07T14:06:14.823Z,41.55
2024-01-07T14:08:42.961Z,40.33
2024-01-07T14:11:10.406Z,39.50
2024-01-07T14:13:38.332Z,41.25
2024-01-07T14:16:10.821Z,44.40
2024-01-07T14:18:38.892Z,63.75
2024-01-07T14:21:07.174Z,59.67
2024-01-07T14:23:35.420Z,52.75
2024-01-07T14:26:04.232Z,43.53
2024-01-07T14:28:32.307Z,53.25
2024-01-07T14:31:00.416Z,59.88
2024-01-07T14:33:28.802Z,69.75
2024-01-07T14:35:57.409Z,67.70
2024-01-07T14:38:26.930Z,78.03
2024-01-07T14:40:55.269Z,71.50
2024-01-07T14:43:23.328Z,53.67
2024-01-07T14:45:50.979Z,63.47
2024-01-07T14:48:19.117Z,51.70
2024-01-07T14:50:49.556Z,56.70
2024-01-07T14:53:17.703Z,58.30
2024-01-07T14:55:45.397Z,47.78
2024-01-07T14:58:13.324Z,51.78
2024-01-07T15:00:41.075Z,63.67
2024-01-07T15:03:09.540Z,44.50
2024-01-07T15:05:37.602Z,39.95
2024-01-07T15:08:05.819Z,54.17
2024-01-07T15:10:34.398Z,51.08
2024-01-07T15:13:07.352Z,43.70
2024-01-07T15:15:42.740Z,39.05
2024-01-07T15:18:10.640Z,45.65
2024-01-07T15:20:38.326Z,49.92
2024-01-07T15:23:06.302Z,49.95
2024-01-07T15:25:34.089Z,85.70
2024-01-07T15:28:01.991Z,54.20
2024-01-07T15:30:29.797Z,51.38
2024-01-07T15:32:58.402Z,49.15
2024-01-07T15:35:26.541Z,55.85
2024-01-07T15:37:56.078Z,42.95
2024-01-07T15:40:23.799Z,47.53
2024-01-07T15:42:52.122Z,49.13
2024-01-07T15:45:20.294Z,41.35
2024-01-07T15:47:48.696Z,45.72
2024-01-07T15:50:16.827Z,43.03
2024-01-07T15:52:47.710Z,41.75
2024-01-07T15:55:15.916Z,43.25
2024-01-07T15:57:46.267Z,45.60
2024-01-07T16:00:16.532Z,48.40
2024-01-07T16:02:47.362Z,45.28
2024-01-07T16:05:16.181Z,44.45
2024-01-07T16:07:44.986Z,46.67
2024-01-07T16:10:14.098Z,50.85
2024-01-07T16:12:43.650Z,43.55
2024-01-07T16:15:12.008Z,44.50
2024-01-07T16:17:40.759Z,42.42
2024-01-07T16:20:12.922Z,48.40
2024-01-07T16:22:41.692Z,41.97
2024-01-07T16:25:09.944Z,50.50
2024-01-07T16:27:38.797Z,46.65
2024-01-07T16:30:08.186Z,42.25
2024-01-07T16:32:36.420Z,41.70
2024-01-07T16:35:04.165Z,43.47
2024-01-07T16:37:33.365Z,46.58
2024-01-07T16:40:01.910Z,40.03
2024-01-07T16:42:32.660Z,43.35
2024-01-07T16:45:00.441Z,44.10
2024-01-07T16:47:28.537Z,46.28
2024-01-07T16:50:20.826Z,45.83
2024-01-07T16:52:44.532Z,55.78
2024-01-07T16:55:13.087Z,46.70
2024-01-07T16:57:42.931Z,46.40
2024-01-07T17:00:11.631Z,54.83
2024-01-07T17:02:39.787Z,44.13
2024-01-07T17:05:07.730Z,42.35
2024-01-07T17:07:36.634Z,41.28
2024-01-07T17:10:06.638Z,42.03
2024-01-07T17:12:35.666Z,39.58
2024-01-07T17:15:04.727Z,43.63
2024-01-07T17:17:32.888Z,42.88
2024-01-07T17:20:00.990Z,42.70
2024-01-07T17:22:29.306Z,37.35
2024-01-07T17:24:57.263Z,40.60
2024-01-07T17:27:28.794Z,36.03
2024-01-07T17:29:56.700Z,38.35
2024-01-07T17:32:26.196Z,35.63
2024-01-07T17:34:55.773Z,52.47
2024-01-07T17:37:24.517Z,42.22
2024-01-07T17:39:51.919Z,93.35
2024-01-07T17:42:22.829Z,97.50
2024-01-07T17:44:51.167Z,92.32
2024-01-07T17:47:19.324Z,42.17
2024-01-07T17:49:47.377Z,35.60
2024-01-07T17:52:16.557Z,35.75
2024-01-07T17:54:44.483Z,37.47
2024-01-07T17:57:13.411Z,40.65
2024-01-07T17:59:41.074Z,34.88
2024-01-07T18:02:14.808Z,136.00
2024-01-07T18:04:44.797Z,172.68
2024-01-07T18:07:15.845Z,46.20
2024-01-07T18:09:43.487Z,97.32
2024-01-07T18:12:12.654Z,249.82
2024-01-07T18:14:40.586Z,156.48
2024-01-07T18:17:08.425Z,269.75
2024-01-07T18:19:35.967Z,93.90
2024-01-07T18:22:04.388Z,53.25
2024-01-07T18:24:33.349Z,644.92
2024-01-07T18:27:03.672Z,326.50
2024-01-07T18:29:31.798Z,843.78
2024-01-07T18:32:02.566Z,717.88
2024-01-07T18:34:30.770Z,299.88
2024-01-07T18:37:01.748Z,275.90
2024-01-07T18:39:29.470Z,238.00
2024-01-07T18:41:57.420Z,220.70
2024-01-07T18:44:27.227Z,81.65
2024-01-07T18:46:55.332Z,62.47
2024-01-07T18:49:22.863Z,58.53
2024-01-07T18:51:50.949Z,59.60
2024-01-07T18:54:18.627Z,62.15
2024-01-07T18:56:47.032Z,48.78
2024-01-07T18:59:15.654Z,58.55
2024-01-07T19:01:44.621Z,51.05
2024-01-07T19:04:12.628Z,93.72
2024-01-07T19:06:44.422Z,92.10
2024-01-07T19:09:13.322Z,37.45
2024-01-07T19:11:43.618Z,47.58
2024-01-07T19:14:12.143Z,74.85
2024-01-07T19:16:44.120Z,73.90
2024-01-07T19:19:13.334Z,76.10
2024-01-07T19:21:42.947Z,42.50
2024-01-07T19:24:10.978Z,52.90
2024-01-07T19:26:42.007Z,174.98
2024-01-07T19:29:10.467Z,189.80
2024-01-07T19:31:39.969Z,104.90
2024-01-07T19:34:07.484Z,52.72
2024-01-07T19:36:40.161Z,53.45
2024-01-07T19:41:38.485Z,83.75
2024-01-07T19:44:08.941Z,56.95
2024-01-07T19:46:38.606Z,48.45
2024-01-07T19:49:10.931Z,44.15
2024-01-07T19:51:39.698Z,48.90
2024-01-07T19:54:07.740Z,50.50
2024-01-07T19:56:36.141Z,48.33
2024-01-07T19:59:04.832Z,42.78
2024-01-07T20:01:32.818Z,51.05
2024-01-07T20:04:00.726Z,68.00
2024-01-07T20:06:30.941Z,53.97
2024-01-07T20:08:58.914Z,40.08
2024-01-07T20:11:27.860Z,68.68
2024-01-07T20:13:55.737Z,76.30
2024-01-07T20:16:23.604Z,95.78
2024-01-07T20:18:53.135Z,59.88
2024-01-07T20:21:24.985Z,65.72
2024-01-07T20:23:59.461Z,46.17
2024-01-07T20:26:28.175Z,47.22
2024-01-07T20:28:57.900Z,42.85
2024-01-07T20:31:26.568Z,53.13
2024-01-07T20:33:54.620Z,50.17
2024-01-07T20:36:23.015Z,55.00
2024-01-07T20:38:51.235Z,45.97
2024-01-07T20:41:21.086Z,52.05
2024-01-07T20:43:48.893Z,43.10
2024-01-07T20:46:16.907Z,46.63
2024-01-07T20:48:44.537Z,52.42
2024-01-07T20:51:14.596Z,48.33
2024-01-07T20:53:43.890Z,43.47
2024-01-07T20:56:11.951Z,53.03
2024-01-07T20:58:39.935Z,61.28
2024-01-07T21:01:10.559Z,55.03
2024-01-07T21:03:38.373Z,56.35
2024-01-07T21:06:06.722Z,52.78
2024-01-07T21:08:36.547Z,60.17
2024-01-07T21:11:06.419Z,46.42
2024-01-07T21:13:34.843Z,56.80
2024-01-07T21:16:04.021Z,130.43
2024-01-07T21:18:31.702Z,77.18
2024-01-07T21:20:59.547Z,41.97
2024-01-07T21:23:26.957Z,49.80
2024-01-07T21:25:54.968Z,60.15
2024-01-07T21:28:24.167Z,47.30
2024-01-07T21:30:52.011Z,53.95
2024-01-07T21:33:20.175Z,59.17
2024-01-07T21:35:48.578Z,49.10
2024-01-07T21:38:17.640Z,45.08
2024-01-07T21:40:47.186Z,79.15
2024-01-07T21:43:14.685Z,53.58
2024-01-07T21:45:42.943Z,59.22
2024-01-07T21:48:11.659Z,58.05
2024-01-07T21:50:40.247Z,52.55
2024-01-07T21:53:08.644Z,51.17
2024-01-07T21:55:38.784Z,48.63
2024-01-07T21:58:06.523Z,61.30
2024-01-07T22:00:35.143Z,42.13
2024-01-07T22:03:02.991Z,50.92
2024-01-07T22:05:31.176Z,52.97
2024-01-07T22:07:58.842Z,51.88
2024-01-07T22:10:26.779Z,55.65
2024-01-07T22:12:54.357Z,52.05
2024-01-07T22:15:22.122Z,51.58
2024-01-07T22:17:50.168Z,47.28
2024-01-07T22:20:19.397Z,59.75
2024-01-07T22:22:47.443Z,51.33
2024-01-07T22:25:16.412Z,50.75
2024-01-07T22:27:44.914Z,49.05
2024-01-07T22:30:14.227Z,56.17
2024-01-07T22:32:42.630Z,51.13
2024-01-07T22:35:12.472Z,52.22
2024-01-07T22:37:40.219Z,48.80
2024-01-07T22:40:08.685Z,49.17
2024-01-07T22:42:36.389Z,75.78
2024-01-07T22:45:04.626Z,62.22
2024-01-07T22:47:32.581Z,60.10
2024-01-07T22:50:00.686Z,56.55
2024-01-07T22:52:28.692Z,60.67
2024-01-07T22:54:56.499Z,60.20
2024-01-07T22:57:24.313Z,54.50
2024-01-07T22:59:52.561Z,64.63
2024-01-07T23:02:20.492Z,57.00
2024-01-07T23:04:48.655Z,58.95
2024-01-07T23:07:16.412Z,48.03
2024-01-07T23:09:45.727Z,55.60
2024-01-07T23:12:13.374Z,56.67
2024-01-07T23:14:41.223Z,65.75
2024-01-07T23:17:08.808Z,63.15
2024-01-07T23:19:36.763Z,70.65
2024-01-07T23:22:05.311Z,87.43
2024-01-07T23:24:33.261Z,58.83
2024-01-07T23:27:01.032Z,87.72
2024-01-07T23:29:29.240Z,56.22
2024-01-07T23:31:59.032Z,71.72
2024-01-07T23:34:29.637Z,63.78
2024-01-07T23:36:57.438Z,68.93
2024-01-07T23:39:25.940Z,62.53
2024-01-07T23:41:54.409Z,53.13
2024-01-07T23:44:23.887Z,63.22
2024-01-07T23:46:51.464Z,58.25
2024-01-07T23:49:19.707Z,50.03
2024-01-07T23:51:48.507Z,62.17
2024-01-07T23:54:16.846Z,49.45
2024-01-07T23:56:45.191Z,52.53
2024-01-07T23:59:13.361Z,52.13
